sensor_id;sensor_type;location;lat;lon;timestamp;pressure;altitude;pressure_sealevel;temperature;humidity
44127;BME280;29786;50.798;7.302;2022-07-22T00:00:01;99760;;;15.78;100
44127;BME280;29786;50.798;7.302;2022-07-22T00:01:01;99760;;;15.76;100
44127;BME280;29786;50.798;7.302;2022-07-22T00:02:01;99760;;;15.72;100
44127;BME280;29786;50.798;7.302;2022-07-22T00:03:01;99760;;;15.76;100
44127;BME280;29786;50.798;7.302;2022-07-22T00:04:01;99760;;;15.75;100
44127;BME280;29786;50.798;7.302;2022-07-22T00:05:01;99760;;;15.73;100
44127;BME280;29786;50.798;7.302;2022-07-22T00:06:01;99760;;;15.71;100
44127;BME280;29786;50.798;7.302;2022-07-22T00:07:01;99760;;;15.73;100
44127;BME280;29786;50.798;7.302;2022-07-22T00:08:01;99760;;;15.7;100
44127;BME280;29786;50.798;7.302;2022-07-22T00:09:01;99760;;;15.71;100
44127;BME280;29786;50.798;7.302;2022-07-22T00:10:00;99760;;;15.7;100
44127;BME280;29786;50.798;7.302;2022-07-22T00:11:00;99760;;;15.68;100
44127;BME280;29786;50.798;7.302;2022-07-22T00:12:00;99760;;;15.67;100
44127;BME280;29786;50.798;7.302;2022-07-22T00:13:01;99760;;;15.69;100
44127;BME280;29786;50.798;7.302;2022-07-22T00:14:01;99760;;;15.67;100
44127;BME280;29786;50.798;7.302;2022-07-22T00:15:00;99760;;;15.69;100
44127;BME280;29786;50.798;7.302;2022-07-22T00:16:01;99750;;;15.68;100
44127;BME280;29786;50.798;7.302;2022-07-22T00:17:01;99760;;;15.71;100
44127;BME280;29786;50.798;7.302;2022-07-22T00:18:00;99760;;;15.71;100
44127;BME280;29786;50.798;7.302;2022-07-22T00:19:01;99760;;;15.7;100
44127;BME280;29786;50.798;7.302;2022-07-22T00:20:01;99760;;;15.68;100
44127;BME280;29786;50.798;7.302;2022-07-22T00:21:00;99760;;;15.65;100
44127;BME280;29786;50.798;7.302;2022-07-22T00:22:00;99760;;;15.67;100
44127;BME280;29786;50.798;7.302;2022-07-22T00:23:00;99750;;;15.72;100
44127;BME280;29786;50.798;7.302;2022-07-22T00:24:01;99760;;;15.74;100
44127;BME280;29786;50.798;7.302;2022-07-22T00:25:01;99750;;;15.73;100
44127;BME280;29786;50.798;7.302;2022-07-22T00:26:01;99760;;;15.72;100
44127;BME280;29786;50.798;7.302;2022-07-22T00:27:01;99750;;;15.7;100
44127;BME280;29786;50.798;7.302;2022-07-22T00:28:00;99750;;;15.7;100
44127;BME280;29786;50.798;7.302;2022-07-22T00:29:01;99750;;;15.75;100
44127;BME280;29786;50.798;7.302;2022-07-22T00:30:00;99750;;;15.73;100
44127;BME280;29786;50.798;7.302;2022-07-22T00:31:00;99750;;;15.73;100
44127;BME280;29786;50.798;7.302;2022-07-22T00:32:01;99750;;;15.72;100
44127;BME280;29786;50.798;7.302;2022-07-22T00:33:01;99750;;;15.76;100
44127;BME280;29786;50.798;7.302;2022-07-22T00:34:01;99750;;;15.76;100
44127;BME280;29786;50.798;7.302;2022-07-22T00:35:01;99750;;;15.79;100
44127;BME280;29786;50.798;7.302;2022-07-22T00:36:00;99750;;;15.8;100
44127;BME280;29786;50.798;7.302;2022-07-22T00:37:00;99750;;;15.8;100
44127;BME280;29786;50.798;7.302;2022-07-22T00:38:01;99750;;;15.81;100
44127;BME280;29786;50.798;7.302;2022-07-22T00:39:01;99750;;;15.78;100
44127;BME280;29786;50.798;7.302;2022-07-22T00:40:00;99750;;;15.79;100
44127;BME280;29786;50.798;7.302;2022-07-22T00:41:01;99750;;;15.8;100
44127;BME280;29786;50.798;7.302;2022-07-22T00:42:00;99750;;;15.78;100
44127;BME280;29786;50.798;7.302;2022-07-22T00:43:00;99750;;;15.82;100
44127;BME280;29786;50.798;7.302;2022-07-22T00:44:02;99740;;;15.8;100
44127;BME280;29786;50.798;7.302;2022-07-22T00:45:01;99750;;;15.83;100
44127;BME280;29786;50.798;7.302;2022-07-22T00:46:01;99740;;;15.82;100
44127;BME280;29786;50.798;7.302;2022-07-22T00:47:01;99740;;;15.83;100
44127;BME280;29786;50.798;7.302;2022-07-22T00:48:01;99740;;;15.85;100
44127;BME280;29786;50.798;7.302;2022-07-22T00:49:01;99740;;;15.87;100
44127;BME280;29786;50.798;7.302;2022-07-22T00:50:01;99740;;;15.86;100
44127;BME280;29786;50.798;7.302;2022-07-22T00:51:01;99740;;;15.87;100
44127;BME280;29786;50.798;7.302;2022-07-22T00:52:01;99740;;;15.86;100
44127;BME280;29786;50.798;7.302;2022-07-22T00:53:00;99740;;;15.81;100
44127;BME280;29786;50.798;7.302;2022-07-22T00:54:01;99740;;;15.84;100
44127;BME280;29786;50.798;7.302;2022-07-22T00:55:01;99740;;;15.85;100
44127;BME280;29786;50.798;7.302;2022-07-22T00:56:01;99740;;;15.84;100
44127;BME280;29786;50.798;7.302;2022-07-22T00:57:01;99740;;;15.81;100
44127;BME280;29786;50.798;7.302;2022-07-22T00:58:01;99740;;;15.83;100
44127;BME280;29786;50.798;7.302;2022-07-22T00:59:02;99740;;;15.85;100
44127;BME280;29786;50.798;7.302;2022-07-22T01:00:01;99740;;;15.87;100
44127;BME280;29786;50.798;7.302;2022-07-22T01:01:01;99740;;;15.83;100
44127;BME280;29786;50.798;7.302;2022-07-22T01:02:01;99740;;;15.84;100
44127;BME280;29786;50.798;7.302;2022-07-22T01:03:00;99730;;;15.89;100
44127;BME280;29786;50.798;7.302;2022-07-22T01:04:01;99740;;;15.92;100
44127;BME280;29786;50.798;7.302;2022-07-22T01:05:01;99740;;;15.94;100
44127;BME280;29786;50.798;7.302;2022-07-22T01:06:01;99740;;;15.96;100
44127;BME280;29786;50.798;7.302;2022-07-22T01:07:01;99740;;;15.95;100
44127;BME280;29786;50.798;7.302;2022-07-22T01:08:04;99740;;;15.97;100
44127;BME280;29786;50.798;7.302;2022-07-22T01:09:01;99740;;;15.94;100
44127;BME280;29786;50.798;7.302;2022-07-22T01:10:00;99740;;;15.9;100
44127;BME280;29786;50.798;7.302;2022-07-22T01:11:18;99740;;;15.93;100
44127;BME280;29786;50.798;7.302;2022-07-22T01:12:01;99740;;;15.93;100
44127;BME280;29786;50.798;7.302;2022-07-22T01:13:01;99730;;;15.98;100
44127;BME280;29786;50.798;7.302;2022-07-22T01:14:01;99740;;;16.03;100
44127;BME280;29786;50.798;7.302;2022-07-22T01:15:00;99740;;;16;100
44127;BME280;29786;50.798;7.302;2022-07-22T01:16:00;99730;;;15.96;100
44127;BME280;29786;50.798;7.302;2022-07-22T01:17:01;99730;;;15.98;100
44127;BME280;29786;50.798;7.302;2022-07-22T01:18:00;99730;;;15.96;100
44127;BME280;29786;50.798;7.302;2022-07-22T01:19:00;99740;;;15.96;100
44127;BME280;29786;50.798;7.302;2022-07-22T01:20:02;99730;;;15.94;100
44127;BME280;29786;50.798;7.302;2022-07-22T01:21:01;99730;;;15.91;100
44127;BME280;29786;50.798;7.302;2022-07-22T01:22:01;99730;;;15.98;100
44127;BME280;29786;50.798;7.302;2022-07-22T01:23:00;99730;;;15.95;100
44127;BME280;29786;50.798;7.302;2022-07-22T01:24:01;99740;;;15.97;100
44127;BME280;29786;50.798;7.302;2022-07-22T01:25:01;99730;;;15.96;100
44127;BME280;29786;50.798;7.302;2022-07-22T01:26:01;99730;;;15.91;100
44127;BME280;29786;50.798;7.302;2022-07-22T01:27:01;99740;;;15.9;100
44127;BME280;29786;50.798;7.302;2022-07-22T01:28:00;99730;;;15.89;100
44127;BME280;29786;50.798;7.302;2022-07-22T01:29:00;99730;;;15.86;100
44127;BME280;29786;50.798;7.302;2022-07-22T01:30:01;99730;;;15.82;100
44127;BME280;29786;50.798;7.302;2022-07-22T01:31:01;99730;;;15.86;100
44127;BME280;29786;50.798;7.302;2022-07-22T01:32:00;99730;;;15.87;100
44127;BME280;29786;50.798;7.302;2022-07-22T01:33:01;99730;;;15.87;100
44127;BME280;29786;50.798;7.302;2022-07-22T01:34:01;99730;;;15.85;100
44127;BME280;29786;50.798;7.302;2022-07-22T01:35:01;99730;;;15.85;100
44127;BME280;29786;50.798;7.302;2022-07-22T01:36:01;99730;;;15.87;100
44127;BME280;29786;50.798;7.302;2022-07-22T01:37:00;99730;;;15.86;100
44127;BME280;29786;50.798;7.302;2022-07-22T01:38:01;99730;;;15.86;100
44127;BME280;29786;50.798;7.302;2022-07-22T01:39:01;99730;;;15.89;100
44127;BME280;29786;50.798;7.302;2022-07-22T01:40:00;99730;;;15.9;100
44127;BME280;29786;50.798;7.302;2022-07-22T01:41:00;99730;;;15.97;100
44127;BME280;29786;50.798;7.302;2022-07-22T01:42:00;99730;;;15.98;100
44127;BME280;29786;50.798;7.302;2022-07-22T01:43:00;99720;;;16.01;100
44127;BME280;29786;50.798;7.302;2022-07-22T01:44:01;99730;;;16.03;100
44127;BME280;29786;50.798;7.302;2022-07-22T01:45:00;99720;;;15.94;100
44127;BME280;29786;50.798;7.302;2022-07-22T01:46:01;99730;;;15.98;100
44127;BME280;29786;50.798;7.302;2022-07-22T01:47:01;99720;;;15.89;100
44127;BME280;29786;50.798;7.302;2022-07-22T01:48:01;99730;;;15.93;100
44127;BME280;29786;50.798;7.302;2022-07-22T01:49:01;99730;;;15.96;100
44127;BME280;29786;50.798;7.302;2022-07-22T01:50:01;99730;;;15.96;100
44127;BME280;29786;50.798;7.302;2022-07-22T01:51:01;99730;;;15.95;100
44127;BME280;29786;50.798;7.302;2022-07-22T01:52:01;99730;;;16;100
44127;BME280;29786;50.798;7.302;2022-07-22T01:53:01;99730;;;16.03;100
44127;BME280;29786;50.798;7.302;2022-07-22T01:54:01;99720;;;16.04;100
44127;BME280;29786;50.798;7.302;2022-07-22T01:55:01;99720;;;16.03;100
44127;BME280;29786;50.798;7.302;2022-07-22T01:56:01;99730;;;16.06;100
44127;BME280;29786;50.798;7.302;2022-07-22T01:57:01;99720;;;16.04;100
44127;BME280;29786;50.798;7.302;2022-07-22T01:58:01;99730;;;16.04;100
44127;BME280;29786;50.798;7.302;2022-07-22T01:59:01;99730;;;16.07;100
44127;BME280;29786;50.798;7.302;2022-07-22T02:00:00;99730;;;16.1;100
44127;BME280;29786;50.798;7.302;2022-07-22T02:01:01;99730;;;16.06;100
44127;BME280;29786;50.798;7.302;2022-07-22T02:02:01;99720;;;16.03;100
44127;BME280;29786;50.798;7.302;2022-07-22T02:03:01;99720;;;16.02;100
44127;BME280;29786;50.798;7.302;2022-07-22T02:04:00;99720;;;15.94;100
44127;BME280;29786;50.798;7.302;2022-07-22T02:05:01;99710;;;15.9;100
44127;BME280;29786;50.798;7.302;2022-07-22T02:06:00;99720;;;15.87;100
44127;BME280;29786;50.798;7.302;2022-07-22T02:07:01;99710;;;15.85;100
44127;BME280;29786;50.798;7.302;2022-07-22T02:08:01;99710;;;15.88;100
44127;BME280;29786;50.798;7.302;2022-07-22T02:09:00;99710;;;15.88;100
44127;BME280;29786;50.798;7.302;2022-07-22T02:10:01;99710;;;15.86;100
44127;BME280;29786;50.798;7.302;2022-07-22T02:11:01;99710;;;15.91;100
44127;BME280;29786;50.798;7.302;2022-07-22T02:12:01;99710;;;15.89;100
44127;BME280;29786;50.798;7.302;2022-07-22T02:13:01;99720;;;15.92;100
44127;BME280;29786;50.798;7.302;2022-07-22T02:14:01;99710;;;15.96;100
44127;BME280;29786;50.798;7.302;2022-07-22T02:15:00;99710;;;15.91;100
44127;BME280;29786;50.798;7.302;2022-07-22T02:16:01;99710;;;15.87;100
44127;BME280;29786;50.798;7.302;2022-07-22T02:17:01;99720;;;15.83;100
44127;BME280;29786;50.798;7.302;2022-07-22T02:18:08;99720;;;15.93;100
44127;BME280;29786;50.798;7.302;2022-07-22T02:19:01;99710;;;15.91;100
44127;BME280;29786;50.798;7.302;2022-07-22T02:20:01;99720;;;15.93;100
44127;BME280;29786;50.798;7.302;2022-07-22T02:21:01;99710;;;15.95;100
44127;BME280;29786;50.798;7.302;2022-07-22T02:22:00;99720;;;15.99;100
44127;BME280;29786;50.798;7.302;2022-07-22T02:23:00;99720;;;16.04;100
44127;BME280;29786;50.798;7.302;2022-07-22T02:24:01;99720;;;16.02;100
44127;BME280;29786;50.798;7.302;2022-07-22T02:25:00;99720;;;16.02;100
44127;BME280;29786;50.798;7.302;2022-07-22T02:26:00;99720;;;16;100
44127;BME280;29786;50.798;7.302;2022-07-22T02:27:01;99720;;;15.99;100
44127;BME280;29786;50.798;7.302;2022-07-22T02:28:01;99710;;;15.92;100
44127;BME280;29786;50.798;7.302;2022-07-22T02:29:01;99720;;;15.87;100
44127;BME280;29786;50.798;7.302;2022-07-22T02:30:03;99720;;;15.91;100
44127;BME280;29786;50.798;7.302;2022-07-22T02:31:01;99710;;;15.92;100
44127;BME280;29786;50.798;7.302;2022-07-22T02:32:01;99720;;;15.88;100
44127;BME280;29786;50.798;7.302;2022-07-22T02:33:01;99710;;;15.9;100
44127;BME280;29786;50.798;7.302;2022-07-22T02:34:00;99720;;;15.86;100
44127;BME280;29786;50.798;7.302;2022-07-22T02:35:01;99720;;;15.84;100
44127;BME280;29786;50.798;7.302;2022-07-22T02:36:01;99710;;;15.84;100
44127;BME280;29786;50.798;7.302;2022-07-22T02:37:01;99710;;;15.87;100
44127;BME280;29786;50.798;7.302;2022-07-22T02:38:01;99710;;;15.88;100
44127;BME280;29786;50.798;7.302;2022-07-22T02:39:01;99710;;;15.88;100
44127;BME280;29786;50.798;7.302;2022-07-22T02:40:00;99710;;;15.91;100
44127;BME280;29786;50.798;7.302;2022-07-22T02:41:00;99710;;;15.89;100
44127;BME280;29786;50.798;7.302;2022-07-22T02:42:00;99710;;;15.86;100
44127;BME280;29786;50.798;7.302;2022-07-22T02:43:01;99710;;;15.82;100
44127;BME280;29786;50.798;7.302;2022-07-22T02:44:01;99710;;;15.81;100
44127;BME280;29786;50.798;7.302;2022-07-22T02:45:01;99710;;;15.8;100
44127;BME280;29786;50.798;7.302;2022-07-22T02:46:01;99710;;;15.78;100
44127;BME280;29786;50.798;7.302;2022-07-22T02:47:00;99710;;;15.79;100
44127;BME280;29786;50.798;7.302;2022-07-22T02:48:01;99710;;;15.76;100
44127;BME280;29786;50.798;7.302;2022-07-22T02:49:01;99710;;;15.76;100
44127;BME280;29786;50.798;7.302;2022-07-22T02:50:01;99720;;;15.74;100
44127;BME280;29786;50.798;7.302;2022-07-22T02:51:01;99710;;;15.72;100
44127;BME280;29786;50.798;7.302;2022-07-22T02:52:01;99710;;;15.7;100
44127;BME280;29786;50.798;7.302;2022-07-22T02:53:00;99710;;;15.74;100
44127;BME280;29786;50.798;7.302;2022-07-22T02:54:00;99720;;;15.72;100
44127;BME280;29786;50.798;7.302;2022-07-22T02:55:00;99710;;;15.7;100
44127;BME280;29786;50.798;7.302;2022-07-22T02:56:01;99710;;;15.74;100
44127;BME280;29786;50.798;7.302;2022-07-22T02:57:01;99720;;;15.73;100
44127;BME280;29786;50.798;7.302;2022-07-22T02:58:04;99710;;;15.72;100
44127;BME280;29786;50.798;7.302;2022-07-22T02:59:01;99710;;;15.72;100
44127;BME280;29786;50.798;7.302;2022-07-22T03:00:01;99710;;;15.66;100
44127;BME280;29786;50.798;7.302;2022-07-22T03:01:01;99720;;;15.64;100
44127;BME280;29786;50.798;7.302;2022-07-22T03:02:01;99710;;;15.63;100
44127;BME280;29786;50.798;7.302;2022-07-22T03:03:01;99720;;;15.64;100
44127;BME280;29786;50.798;7.302;2022-07-22T03:04:01;99720;;;15.62;100
44127;BME280;29786;50.798;7.302;2022-07-22T03:05:01;99720;;;15.57;100
44127;BME280;29786;50.798;7.302;2022-07-22T03:06:01;99720;;;15.55;100
44127;BME280;29786;50.798;7.302;2022-07-22T03:07:00;99720;;;15.53;100
44127;BME280;29786;50.798;7.302;2022-07-22T03:08:01;99720;;;15.57;100
44127;BME280;29786;50.798;7.302;2022-07-22T03:09:01;99720;;;15.53;100
44127;BME280;29786;50.798;7.302;2022-07-22T03:10:01;99720;;;15.59;100
44127;BME280;29786;50.798;7.302;2022-07-22T03:11:01;99710;;;15.6;100
44127;BME280;29786;50.798;7.302;2022-07-22T03:12:01;99710;;;15.62;100
44127;BME280;29786;50.798;7.302;2022-07-22T03:13:00;99710;;;15.66;100
44127;BME280;29786;50.798;7.302;2022-07-22T03:14:01;99710;;;15.65;100
44127;BME280;29786;50.798;7.302;2022-07-22T03:15:01;99720;;;15.64;100
44127;BME280;29786;50.798;7.302;2022-07-22T03:16:01;99720;;;15.63;100
44127;BME280;29786;50.798;7.302;2022-07-22T03:17:01;99720;;;15.66;100
44127;BME280;29786;50.798;7.302;2022-07-22T03:18:01;99720;;;15.63;100
44127;BME280;29786;50.798;7.302;2022-07-22T03:19:01;99710;;;15.66;100
44127;BME280;29786;50.798;7.302;2022-07-22T03:20:02;99710;;;15.62;100
44127;BME280;29786;50.798;7.302;2022-07-22T03:21:00;99720;;;15.62;100
44127;BME280;29786;50.798;7.302;2022-07-22T03:22:00;99710;;;15.67;100
44127;BME280;29786;50.798;7.302;2022-07-22T03:23:01;99720;;;15.69;100
44127;BME280;29786;50.798;7.302;2022-07-22T03:24:01;99720;;;15.68;100
44127;BME280;29786;50.798;7.302;2022-07-22T03:25:01;99720;;;15.68;100
44127;BME280;29786;50.798;7.302;2022-07-22T03:26:01;99720;;;15.67;100
44127;BME280;29786;50.798;7.302;2022-07-22T03:27:01;99720;;;15.69;100
44127;BME280;29786;50.798;7.302;2022-07-22T03:28:01;99720;;;15.64;100
44127;BME280;29786;50.798;7.302;2022-07-22T03:29:00;99720;;;15.63;100
44127;BME280;29786;50.798;7.302;2022-07-22T03:30:01;99720;;;15.63;100
44127;BME280;29786;50.798;7.302;2022-07-22T03:31:01;99720;;;15.63;100
44127;BME280;29786;50.798;7.302;2022-07-22T03:32:01;99720;;;15.64;100
44127;BME280;29786;50.798;7.302;2022-07-22T03:33:01;99720;;;15.63;100
44127;BME280;29786;50.798;7.302;2022-07-22T03:34:01;99720;;;15.63;100
44127;BME280;29786;50.798;7.302;2022-07-22T03:35:01;99720;;;15.66;100
44127;BME280;29786;50.798;7.302;2022-07-22T03:36:01;99720;;;15.64;100
44127;BME280;29786;50.798;7.302;2022-07-22T03:37:01;99720;;;15.66;100
44127;BME280;29786;50.798;7.302;2022-07-22T03:38:01;99720;;;15.67;100
44127;BME280;29786;50.798;7.302;2022-07-22T03:39:01;99720;;;15.66;100
44127;BME280;29786;50.798;7.302;2022-07-22T03:40:01;99720;;;15.68;100
44127;BME280;29786;50.798;7.302;2022-07-22T03:41:01;99720;;;15.68;100
44127;BME280;29786;50.798;7.302;2022-07-22T03:42:01;99710;;;15.67;100
44127;BME280;29786;50.798;7.302;2022-07-22T03:43:01;99710;;;15.69;100
44127;BME280;29786;50.798;7.302;2022-07-22T03:44:00;99710;;;15.68;100
44127;BME280;29786;50.798;7.302;2022-07-22T03:45:01;99710;;;15.68;100
44127;BME280;29786;50.798;7.302;2022-07-22T03:46:00;99710;;;15.69;100
44127;BME280;29786;50.798;7.302;2022-07-22T03:47:01;99710;;;15.71;100
44127;BME280;29786;50.798;7.302;2022-07-22T03:48:01;99710;;;15.75;100
44127;BME280;29786;50.798;7.302;2022-07-22T03:49:01;99710;;;15.75;100
44127;BME280;29786;50.798;7.302;2022-07-22T03:50:01;99710;;;15.75;100
44127;BME280;29786;50.798;7.302;2022-07-22T03:51:01;99710;;;15.77;100
44127;BME280;29786;50.798;7.302;2022-07-22T03:52:00;99720;;;15.75;100
44127;BME280;29786;50.798;7.302;2022-07-22T03:53:00;99710;;;15.76;100
44127;BME280;29786;50.798;7.302;2022-07-22T03:54:01;99720;;;15.8;100
44127;BME280;29786;50.798;7.302;2022-07-22T03:55:01;99710;;;15.81;100
44127;BME280;29786;50.798;7.302;2022-07-22T03:56:00;99720;;;15.81;100
44127;BME280;29786;50.798;7.302;2022-07-22T03:57:01;99710;;;15.84;100
44127;BME280;29786;50.798;7.302;2022-07-22T03:58:01;99710;;;15.86;100
44127;BME280;29786;50.798;7.302;2022-07-22T03:59:01;99710;;;15.88;100
44127;BME280;29786;50.798;7.302;2022-07-22T04:00:00;99720;;;15.81;100
44127;BME280;29786;50.798;7.302;2022-07-22T04:01:01;99720;;;15.9;100
44127;BME280;29786;50.798;7.302;2022-07-22T04:02:01;99720;;;15.95;100
44127;BME280;29786;50.798;7.302;2022-07-22T04:03:01;99720;;;15.96;100
44127;BME280;29786;50.798;7.302;2022-07-22T04:04:01;99720;;;15.92;100
44127;BME280;29786;50.798;7.302;2022-07-22T04:05:01;99720;;;15.92;100
44127;BME280;29786;50.798;7.302;2022-07-22T04:06:01;99720;;;15.89;100
44127;BME280;29786;50.798;7.302;2022-07-22T04:07:00;99710;;;15.9;100
44127;BME280;29786;50.798;7.302;2022-07-22T04:08:01;99720;;;15.91;100
44127;BME280;29786;50.798;7.302;2022-07-22T04:09:01;99710;;;15.95;100
44127;BME280;29786;50.798;7.302;2022-07-22T04:10:01;99710;;;15.94;100
44127;BME280;29786;50.798;7.302;2022-07-22T04:11:01;99710;;;15.93;100
44127;BME280;29786;50.798;7.302;2022-07-22T04:12:01;99710;;;15.91;100
44127;BME280;29786;50.798;7.302;2022-07-22T04:13:01;99710;;;15.88;100
44127;BME280;29786;50.798;7.302;2022-07-22T04:14:01;99710;;;15.89;100
44127;BME280;29786;50.798;7.302;2022-07-22T04:15:01;99710;;;16.04;100
44127;BME280;29786;50.798;7.302;2022-07-22T04:16:01;99710;;;16.09;100
44127;BME280;29786;50.798;7.302;2022-07-22T04:17:01;99710;;;16.06;100
44127;BME280;29786;50.798;7.302;2022-07-22T04:18:00;99720;;;16.08;100
44127;BME280;29786;50.798;7.302;2022-07-22T04:19:01;99710;;;15.99;100
44127;BME280;29786;50.798;7.302;2022-07-22T04:20:01;99710;;;15.97;100
44127;BME280;29786;50.798;7.302;2022-07-22T04:21:01;99710;;;15.92;100
44127;BME280;29786;50.798;7.302;2022-07-22T04:22:01;99710;;;16;100
44127;BME280;29786;50.798;7.302;2022-07-22T04:23:01;99710;;;15.91;100
44127;BME280;29786;50.798;7.302;2022-07-22T04:24:01;99710;;;15.92;100
44127;BME280;29786;50.798;7.302;2022-07-22T04:25:00;99710;;;15.94;100
44127;BME280;29786;50.798;7.302;2022-07-22T04:26:01;99710;;;15.94;100
44127;BME280;29786;50.798;7.302;2022-07-22T04:27:01;99710;;;15.99;100
44127;BME280;29786;50.798;7.302;2022-07-22T04:28:01;99710;;;16.04;100
44127;BME280;29786;50.798;7.302;2022-07-22T04:29:01;99710;;;16.1;100
44127;BME280;29786;50.798;7.302;2022-07-22T04:30:01;99710;;;16.12;100
44127;BME280;29786;50.798;7.302;2022-07-22T04:31:01;99710;;;16.09;100
44127;BME280;29786;50.798;7.302;2022-07-22T04:32:00;99710;;;16.1;100
44127;BME280;29786;50.798;7.302;2022-07-22T04:33:00;99710;;;16.15;100
44127;BME280;29786;50.798;7.302;2022-07-22T04:34:00;99700;;;16.19;100
44127;BME280;29786;50.798;7.302;2022-07-22T04:35:01;99710;;;16.2;100
44127;BME280;29786;50.798;7.302;2022-07-22T04:36:01;99700;;;16.25;100
44127;BME280;29786;50.798;7.302;2022-07-22T04:37:00;99710;;;16.2;100
44127;BME280;29786;50.798;7.302;2022-07-22T04:38:01;99710;;;16.18;100
44127;BME280;29786;50.798;7.302;2022-07-22T04:39:01;99710;;;16.24;100
44127;BME280;29786;50.798;7.302;2022-07-22T04:40:01;99710;;;16.24;100
44127;BME280;29786;50.798;7.302;2022-07-22T04:41:01;99710;;;16.16;100
44127;BME280;29786;50.798;7.302;2022-07-22T04:42:01;99710;;;16.19;100
44127;BME280;29786;50.798;7.302;2022-07-22T04:43:01;99710;;;16.19;100
44127;BME280;29786;50.798;7.302;2022-07-22T04:44:00;99710;;;16.27;100
44127;BME280;29786;50.798;7.302;2022-07-22T04:45:00;99700;;;16.31;100
44127;BME280;29786;50.798;7.302;2022-07-22T04:46:01;99710;;;16.35;100
44127;BME280;29786;50.798;7.302;2022-07-22T04:47:01;99710;;;16.36;100
44127;BME280;29786;50.798;7.302;2022-07-22T04:48:00;99700;;;16.37;100
44127;BME280;29786;50.798;7.302;2022-07-22T04:49:00;99710;;;16.44;100
44127;BME280;29786;50.798;7.302;2022-07-22T04:50:00;99710;;;16.46;100
44127;BME280;29786;50.798;7.302;2022-07-22T04:51:01;99710;;;16.5;100
44127;BME280;29786;50.798;7.302;2022-07-22T04:52:01;99710;;;16.48;100
44127;BME280;29786;50.798;7.302;2022-07-22T04:53:01;99710;;;16.41;100
44127;BME280;29786;50.798;7.302;2022-07-22T04:54:01;99710;;;16.41;100
44127;BME280;29786;50.798;7.302;2022-07-22T04:55:01;99710;;;16.4;100
44127;BME280;29786;50.798;7.302;2022-07-22T04:56:01;99710;;;16.33;100
44127;BME280;29786;50.798;7.302;2022-07-22T04:57:00;99710;;;16.29;100
44127;BME280;29786;50.798;7.302;2022-07-22T04:58:00;99720;;;16.11;100
44127;BME280;29786;50.798;7.302;2022-07-22T04:59:00;99720;;;16.17;100
44127;BME280;29786;50.798;7.302;2022-07-22T05:00:01;99720;;;16.12;100
44127;BME280;29786;50.798;7.302;2022-07-22T05:01:01;99720;;;16.2;100
44127;BME280;29786;50.798;7.302;2022-07-22T05:02:01;99720;;;16.27;100
44127;BME280;29786;50.798;7.302;2022-07-22T05:03:01;99720;;;16.26;100
44127;BME280;29786;50.798;7.302;2022-07-22T05:04:01;99720;;;16.27;100
44127;BME280;29786;50.798;7.302;2022-07-22T05:05:00;99720;;;16.26;100
44127;BME280;29786;50.798;7.302;2022-07-22T05:06:00;99720;;;16.24;100
44127;BME280;29786;50.798;7.302;2022-07-22T05:07:01;99720;;;16.19;100
44127;BME280;29786;50.798;7.302;2022-07-22T05:08:01;99730;;;16.17;100
44127;BME280;29786;50.798;7.302;2022-07-22T05:09:01;99730;;;16.14;100
44127;BME280;29786;50.798;7.302;2022-07-22T05:10:01;99730;;;16.14;100
44127;BME280;29786;50.798;7.302;2022-07-22T05:11:01;99730;;;16.15;100
44127;BME280;29786;50.798;7.302;2022-07-22T05:12:01;99730;;;16.15;100
44127;BME280;29786;50.798;7.302;2022-07-22T05:13:01;99730;;;16.17;100
44127;BME280;29786;50.798;7.302;2022-07-22T05:14:01;99730;;;16.26;100
44127;BME280;29786;50.798;7.302;2022-07-22T05:15:01;99730;;;16.21;100
44127;BME280;29786;50.798;7.302;2022-07-22T05:16:04;99730;;;16.21;100
44127;BME280;29786;50.798;7.302;2022-07-22T05:17:01;99730;;;16.26;100
44127;BME280;29786;50.798;7.302;2022-07-22T05:18:01;99730;;;16.28;100
44127;BME280;29786;50.798;7.302;2022-07-22T05:19:01;99730;;;16.31;100
44127;BME280;29786;50.798;7.302;2022-07-22T05:20:01;99730;;;16.2;100
44127;BME280;29786;50.798;7.302;2022-07-22T05:21:01;99730;;;16.26;100
44127;BME280;29786;50.798;7.302;2022-07-22T05:22:00;99720;;;16.33;100
44127;BME280;29786;50.798;7.302;2022-07-22T05:23:01;99730;;;16.35;100
44127;BME280;29786;50.798;7.302;2022-07-22T05:24:00;99730;;;16.34;100
44127;BME280;29786;50.798;7.302;2022-07-22T05:25:00;99730;;;16.36;100
44127;BME280;29786;50.798;7.302;2022-07-22T05:26:01;99730;;;16.29;100
44127;BME280;29786;50.798;7.302;2022-07-22T05:27:01;99720;;;16.43;100
44127;BME280;29786;50.798;7.302;2022-07-22T05:28:01;99720;;;16.45;100
44127;BME280;29786;50.798;7.302;2022-07-22T05:29:00;99730;;;16.48;100
44127;BME280;29786;50.798;7.302;2022-07-22T05:30:01;99730;;;16.54;100
44127;BME280;29786;50.798;7.302;2022-07-22T05:31:00;99720;;;16.53;100
44127;BME280;29786;50.798;7.302;2022-07-22T05:32:01;99730;;;16.49;100
44127;BME280;29786;50.798;7.302;2022-07-22T05:33:01;99730;;;16.48;100
44127;BME280;29786;50.798;7.302;2022-07-22T05:34:00;99730;;;16.52;100
44127;BME280;29786;50.798;7.302;2022-07-22T05:35:01;99720;;;16.53;100
44127;BME280;29786;50.798;7.302;2022-07-22T05:36:01;99720;;;16.49;100
44127;BME280;29786;50.798;7.302;2022-07-22T05:37:01;99720;;;16.53;100
44127;BME280;29786;50.798;7.302;2022-07-22T05:38:01;99720;;;16.59;100
44127;BME280;29786;50.798;7.302;2022-07-22T05:39:00;99720;;;16.64;100
44127;BME280;29786;50.798;7.302;2022-07-22T05:40:01;99720;;;16.65;100